CheckWX is a tool to help pilots better visualize weather data.  It is not intended as a substitute for an official pre-flight weather briefing.

23:25:53 UTC

KMWK METAR
Mount Airy / Surry County Airport
Mount Airy, North Carolina, USA
Current

26 mins ago

KMWK 242300Z AUTO 31004KT 10SM CLR 32/20 A3012 RMK AO2 T03160199
Observed
May-24 @ 23:00 UTC
Wind
  • 310° at 4 KTS
Visibility
10 SM
Flight Rules
VFR
Cloud Levels
  • Clear skies
Temperature
32°C / 90°F
Dewpoint
20°C / 68°F
Heat Index
34°C / 94°F
Humidity
49%
Altimeter
30.12" Hg
Pressure
1020.02 hPa
Previous

46 mins ago

KMWK 242240Z AUTO 30003KT 10SM CLR 32/20 A3012 RMK AO2 T03180197
Observed
May-24 @ 22:40 UTC
Wind
  • 300° at 3 KTS
Visibility
10 SM
Flight Rules
VFR
Cloud Levels
  • Clear skies
Temperature
32°C / 90°F
Dewpoint
20°C / 68°F
Heat Index
34°C / 94°F
Humidity
49%
Altimeter
30.12" Hg
Pressure
1020.02 hPa
Previous

1 hour ago

KMWK 242220Z AUTO 30004KT 10SM CLR 32/19 A3011 RMK AO2 T03220194
Observed
May-24 @ 22:20 UTC
Wind
  • 300° at 4 KTS
Visibility
10 SM
Flight Rules
VFR
Cloud Levels
  • Clear skies
Temperature
32°C / 90°F
Dewpoint
19°C / 66°F
Heat Index
34°C / 93°F
Humidity
46%
Altimeter
30.11" Hg
Pressure
1019.62 hPa